createdAt,value
2017-03-28T00:00:39.743Z,75.30
2017-03-28T00:01:38.583Z,75.30
2017-03-28T00:02:37.063Z,75.60
2017-03-28T00:03:36.313Z,75.90
2017-03-28T00:04:34.777Z,75.90
2017-03-28T00:05:33.257Z,75.40
2017-03-28T00:06:31.723Z,76.10
2017-03-28T00:07:30.510Z,76.20
2017-03-28T00:08:29.818Z,75.90
2017-03-28T00:09:28.316Z,75.80
2017-03-28T00:10:26.794Z,76.10
2017-03-28T00:11:26.064Z,76.80
2017-03-28T00:12:25.329Z,76.90
2017-03-28T00:13:24.970Z,76.20
2017-03-28T00:14:23.443Z,76.10
2017-03-28T00:15:22.241Z,76.10
2017-03-28T00:16:21.742Z,76.00
2017-03-28T00:17:20.203Z,75.80
2017-03-28T00:18:18.691Z,75.20
2017-03-28T00:19:18.284Z,74.40
2017-03-28T00:20:17.523Z,74.30
2017-03-28T00:21:15.997Z,74.30
2017-03-28T00:22:14.478Z,74.50
2017-03-28T00:23:14.339Z,75.70
2017-03-28T00:24:12.802Z,75.10
2017-03-28T00:25:12.415Z,75.10
2017-03-28T00:26:10.904Z,74.40
2017-03-28T00:27:10.121Z,75.30
2017-03-28T00:28:08.616Z,75.30
2017-03-28T00:29:07.135Z,74.70
2017-03-28T00:30:06.469Z,73.30
2017-03-28T00:31:05.561Z,73.30
2017-03-28T00:32:04.041Z,74.20
2017-03-28T00:33:03.363Z,74.00
2017-03-28T00:34:01.936Z,74.00
2017-03-28T00:35:00.422Z,74.30
2017-03-28T00:35:59.712Z,74.70
2017-03-28T00:36:58.579Z,74.70
2017-03-28T00:37:57.067Z,74.70
2017-03-28T00:38:55.549Z,75.00
2017-03-28T00:39:54.860Z,74.70
2017-03-28T00:40:53.330Z,74.70
2017-03-28T00:41:51.806Z,75.00
2017-03-28T00:42:50.593Z,75.60
2017-03-28T00:43:49.836Z,75.60
2017-03-28T00:44:48.305Z,75.50
2017-03-28T00:45:47.541Z,75.10
2017-03-28T00:46:46.036Z,75.00
2017-03-28T00:47:45.278Z,75.60
2017-03-28T00:48:44.041Z,75.50
2017-03-28T00:49:43.280Z,75.10
2017-03-28T00:50:42.512Z,75.40
2017-03-28T00:51:41.749Z,75.80
2017-03-28T00:52:40.989Z,75.90
2017-03-28T00:53:39.480Z,75.90
2017-03-28T00:54:39.017Z,74.80
2017-03-28T00:55:37.502Z,74.70
2017-03-28T00:56:35.973Z,74.80
2017-03-28T00:57:34.449Z,75.60
2017-03-28T00:58:32.913Z,75.90
2017-03-28T00:59:31.438Z,76.30
2017-03-28T01:00:30.179Z,76.00
2017-03-28T01:01:29.464Z,75.20
2017-03-28T01:02:28.745Z,76.10
2017-03-28T01:03:27.327Z,76.10
2017-03-28T01:04:26.565Z,76.40
2017-03-28T01:05:25.826Z,76.00
2017-03-28T01:06:24.623Z,75.40
2017-03-28T01:07:23.109Z,75.50
2017-03-28T01:08:22.337Z,75.70
2017-03-28T01:09:20.841Z,75.60
2017-03-28T01:10:19.308Z,75.60
2017-03-28T01:11:17.805Z,74.80
2017-03-28T01:12:16.722Z,74.10
2017-03-28T01:13:16.160Z,74.70
2017-03-28T01:14:15.413Z,75.50
2017-03-28T01:15:14.552Z,75.50
2017-03-28T01:16:13.054Z,75.50
2017-03-28T01:17:11.551Z,75.70
2017-03-28T01:18:11.211Z,75.40
2017-03-28T01:19:09.694Z,75.40
2017-03-28T01:20:08.944Z,76.00
2017-03-28T01:21:07.451Z,75.60
2017-03-28T01:22:06.716Z,75.60
2017-03-28T01:23:05.209Z,75.40
2017-03-28T01:24:04.851Z,76.50
2017-03-28T01:25:04.100Z,76.40
2017-03-28T01:26:02.597Z,76.50
2017-03-28T01:27:01.088Z,76.10
2017-03-28T01:27:59.547Z,75.40
2017-03-28T01:28:58.169Z,75.10
2017-03-28T01:29:56.965Z,75.20
2017-03-28T01:30:55.497Z,75.40
2017-03-28T01:31:54.729Z,76.80
2017-03-28T01:32:53.210Z,76.70
2017-03-28T01:33:51.739Z,76.20
2017-03-28T01:34:50.217Z,76.80
2017-03-28T01:35:49.824Z,77.30
2017-03-28T01:36:48.301Z,77.40
2017-03-28T01:37:47.101Z,77.70
2017-03-28T01:38:46.348Z,77.90
2017-03-28T01:39:44.849Z,77.90
2017-03-28T01:40:44.114Z,78.20
2017-03-28T01:41:43.644Z,78.70
2017-03-28T01:42:42.109Z,78.50
2017-03-28T01:43:40.582Z,79.10
2017-03-28T01:44:39.833Z,79.00
2017-03-28T01:45:39.057Z,79.00
2017-03-28T01:46:37.528Z,79.00
2017-03-28T01:47:36.401Z,79.00
2017-03-28T01:48:34.991Z,79.00
2017-03-28T01:49:33.493Z,78.70
2017-03-28T01:50:31.965Z,78.00
2017-03-28T01:51:30.438Z,77.60
2017-03-28T01:52:28.914Z,78.60
2017-03-28T01:53:27.700Z,78.30
2017-03-28T01:54:26.257Z,77.60
2017-03-28T01:55:24.741Z,77.90
2017-03-28T01:56:24.015Z,78.50
2017-03-28T01:57:23.277Z,78.20
2017-03-28T01:58:21.760Z,78.30
2017-03-28T01:59:20.534Z,78.40
2017-03-28T02:00:19.052Z,78.00
2017-03-28T02:01:18.317Z,78.90
2017-03-28T02:02:18.325Z,78.70
2017-03-28T02:03:17.662Z,79.60
2017-03-28T02:04:16.917Z,78.90
2017-03-28T02:05:16.070Z,79.00
2017-03-28T02:06:14.604Z,78.70
2017-03-28T02:07:13.861Z,77.40
2017-03-28T02:08:13.158Z,77.10
2017-03-28T02:09:11.685Z,77.10
2017-03-28T02:10:11.004Z,78.40
2017-03-28T02:11:09.756Z,78.40
2017-03-28T02:12:08.456Z,78.60
2017-03-28T02:13:07.705Z,78.40
2017-03-28T02:14:06.229Z,78.40
2017-03-28T02:15:04.694Z,79.00
2017-03-28T02:16:03.165Z,78.30
2017-03-28T02:17:01.917Z,78.00
2017-03-28T02:18:00.405Z,77.70
2017-03-28T02:18:58.861Z,77.60
2017-03-28T02:19:58.092Z,78.30
2017-03-28T02:20:57.330Z,77.90
2017-03-28T02:21:55.801Z,77.80
2017-03-28T02:22:55.367Z,78.10
2017-03-28T02:23:53.834Z,78.10
2017-03-28T02:24:52.375Z,78.20
2017-03-28T02:25:50.834Z,78.30
2017-03-28T02:26:50.074Z,77.00
2017-03-28T02:27:48.528Z,76.90
2017-03-28T02:28:48.102Z,77.80
2017-03-28T02:29:46.601Z,77.90
2017-03-28T02:30:45.877Z,78.80
2017-03-28T02:31:45.153Z,78.60
2017-03-28T02:32:43.620Z,78.60
2017-03-28T02:33:42.136Z,78.80
2017-03-28T02:34:40.921Z,78.70
2017-03-28T02:35:39.435Z,78.30
2017-03-28T02:36:38.704Z,79.00
2017-03-28T02:37:37.961Z,78.80
2017-03-28T02:38:36.420Z,79.40
2017-03-28T02:39:34.911Z,78.50
2017-03-28T02:40:34.500Z,78.40
2017-03-28T02:41:33.788Z,78.70
2017-03-28T02:42:33.044Z,79.20
2017-03-28T02:43:31.514Z,79.80
2017-03-28T02:44:29.994Z,79.20
2017-03-28T02:45:28.519Z,79.30
2017-03-28T02:46:27.308Z,79.30
2017-03-28T02:47:25.834Z,79.10
2017-03-28T02:48:25.064Z,79.20
2017-03-28T02:49:23.532Z,79.20
2017-03-28T02:50:22.029Z,79.00
2017-03-28T02:51:21.273Z,79.80
2017-03-28T02:52:20.876Z,78.90
2017-03-28T02:53:19.373Z,79.00
2017-03-28T02:54:17.849Z,79.60
2017-03-28T02:55:17.125Z,78.70
2017-03-28T02:56:16.370Z,78.80
2017-03-28T02:57:14.829Z,78.90
2017-03-28T02:58:13.621Z,79.20
2017-03-28T02:59:12.109Z,79.70
2017-03-28T03:00:10.587Z,79.50
2017-03-28T03:01:09.817Z,80.50
2017-03-28T03:02:08.288Z,80.40
2017-03-28T03:03:07.601Z,79.50
2017-03-28T03:04:07.147Z,79.50
2017-03-28T03:05:06.696Z,79.80
2017-03-28T03:06:05.928Z,79.80
2017-03-28T03:07:05.201Z,79.70
2017-03-28T03:08:03.694Z,79.80
2017-03-28T03:09:02.170Z,79.70
2017-03-28T03:10:01.021Z,80.70
2017-03-28T03:10:59.516Z,80.50
2017-03-28T03:11:58.764Z,79.30
2017-03-28T03:12:57.238Z,79.20
2017-03-28T03:13:55.707Z,79.40
2017-03-28T03:14:54.206Z,79.30
2017-03-28T03:15:53.037Z,79.30
2017-03-28T03:16:51.501Z,78.10
2017-03-28T03:17:49.985Z,79.40
2017-03-28T03:18:48.471Z,79.80
2017-03-28T03:19:47.725Z,79.90
2017-03-28T03:20:46.190Z,79.90
2017-03-28T03:21:44.943Z,79.70
2017-03-28T03:22:44.188Z,80.10
2017-03-28T03:23:43.426Z,79.70
2017-03-28T03:24:41.890Z,79.60
2017-03-28T03:25:40.390Z,79.20
2017-03-28T03:26:39.628Z,80.30
2017-03-28T03:27:38.504Z,79.80
2017-03-28T03:28:36.983Z,79.40
2017-03-28T03:29:35.460Z,78.70
2017-03-28T03:30:34.812Z,79.00
2017-03-28T03:31:33.350Z,79.10
2017-03-28T03:32:32.612Z,79.00
2017-03-28T03:33:32.262Z,79.20
2017-03-28T03:34:30.764Z,79.20
2017-03-28T03:35:30.020Z,80.00
2017-03-28T03:36:29.312Z,79.30
2017-03-28T03:37:27.777Z,79.30
2017-03-28T03:38:26.248Z,79.70
2017-03-28T03:39:26.838Z,80.00
2017-03-28T03:40:25.336Z,80.00
2017-03-28T03:41:23.856Z,79.50
2017-03-28T03:42:22.330Z,79.50
2017-03-28T03:43:20.839Z,80.00
2017-03-28T03:44:19.311Z,80.20
2017-03-28T03:45:18.840Z,80.60
2017-03-28T03:46:18.190Z,80.20
2017-03-28T03:47:17.471Z,80.00
2017-03-28T03:48:15.960Z,80.00
2017-03-28T03:49:15.279Z,80.70
2017-03-28T03:50:13.890Z,80.80
2017-03-28T03:51:13.537Z,80.90
2017-03-28T03:52:12.082Z,80.90
2017-03-28T03:53:11.360Z,80.80
2017-03-28T03:54:10.385Z,80.70
2017-03-28T03:55:08.897Z,80.40
2017-03-28T03:56:08.256Z,79.60
2017-03-28T03:57:07.836Z,79.00
2017-03-28T03:58:06.393Z,79.00
2017-03-28T03:59:04.940Z,80.00
2017-03-28T04:00:03.445Z,79.40
2017-03-28T04:01:02.904Z,80.20
2017-03-28T04:02:02.189Z,79.80
2017-03-28T04:03:01.065Z,79.70
2017-03-28T04:04:00.355Z,79.70
2017-03-28T04:04:58.911Z,79.60
2017-03-28T04:05:58.180Z,80.40
2017-03-28T04:06:56.656Z,80.40
2017-03-28T04:07:55.137Z,80.30
2017-03-28T04:08:54.009Z,80.30
2017-03-28T04:09:52.595Z,79.40
2017-03-28T04:10:51.869Z,80.80
2017-03-28T04:11:50.344Z,80.80
2017-03-28T04:12:48.797Z,80.40
2017-03-28T04:13:47.290Z,80.00
2017-03-28T04:14:46.830Z,80.60
2017-03-28T04:15:46.092Z,81.10
2017-03-28T04:16:44.597Z,81.10
2017-03-28T04:17:43.866Z,81.20
2017-03-28T04:18:42.369Z,81.30
2017-03-28T04:19:41.642Z,81.80
2017-03-28T04:20:40.426Z,81.90
2017-03-28T04:21:38.933Z,81.80
2017-03-28T04:22:37.420Z,81.10
2017-03-28T04:23:35.940Z,81.20
2017-03-28T04:24:34.416Z,81.20
2017-03-28T04:25:32.896Z,81.30
2017-03-28T04:26:31.680Z,81.50
2017-03-28T04:27:30.177Z,81.10
2017-03-28T04:28:28.679Z,81.90
2017-03-28T04:29:27.185Z,81.60
2017-03-28T04:30:25.655Z,81.90
2017-03-28T04:31:24.168Z,81.80
2017-03-28T04:32:22.997Z,81.30
2017-03-28T04:33:21.491Z,81.10
2017-03-28T04:34:20.742Z,81.00
2017-03-28T04:35:20.049Z,80.60
2017-03-28T04:36:19.347Z,80.50
2017-03-28T04:37:17.891Z,80.40
2017-03-28T04:38:16.748Z,80.30
2017-03-28T04:39:16.037Z,80.60
2017-03-28T04:40:14.553Z,80.60
2017-03-28T04:41:13.808Z,80.80
2017-03-28T04:42:13.165Z,81.00
2017-03-28T04:43:11.771Z,81.00
2017-03-28T04:44:11.052Z,80.90
2017-03-28T04:45:10.472Z,81.40
2017-03-28T04:46:10.100Z,81.30
2017-03-28T04:47:08.795Z,81.20
2017-03-28T04:48:08.621Z,80.80
2017-03-28T04:49:08.237Z,81.40
2017-03-28T04:50:07.131Z,81.50
2017-03-28T04:51:05.604Z,81.50
2017-03-28T04:52:04.862Z,80.70
2017-03-28T04:53:03.325Z,80.80
2017-03-28T04:54:02.553Z,80.30
2017-03-28T04:55:01.813Z,80.60
2017-03-28T04:56:00.669Z,80.60
2017-03-28T04:56:59.120Z,80.40
2017-03-28T04:57:57.606Z,81.10
2017-03-28T04:58:56.112Z,80.50
2017-03-28T04:59:55.385Z,79.90
2017-03-28T05:00:55.115Z,79.90
2017-03-28T05:01:53.892Z,80.00
2017-03-28T05:02:53.165Z,80.20
2017-03-28T05:03:51.668Z,80.30
2017-03-28T05:04:50.183Z,80.90
2017-03-28T05:05:49.433Z,81.50
2017-03-28T05:06:48.689Z,81.00
2017-03-28T05:07:47.464Z,81.10
2017-03-28T05:08:45.953Z,81.10
2017-03-28T05:09:45.218Z,81.00
2017-03-28T05:10:43.687Z,80.90
2017-03-28T05:11:42.273Z,81.30
2017-03-28T05:12:40.777Z,81.40
2017-03-28T05:13:40.726Z,80.80
2017-03-28T05:14:39.233Z,80.80
2017-03-28T05:15:40.508Z,80.30
2017-03-28T05:16:39.064Z,80.30
2017-03-28T05:17:37.559Z,80.80
2017-03-28T05:18:36.048Z,80.40
2017-03-28T05:19:35.686Z,80.10
2017-03-28T05:20:34.165Z,80.00
2017-03-28T05:21:32.642Z,80.20
2017-03-28T05:22:31.189Z,80.40
2017-03-28T05:23:29.662Z,80.20
2017-03-28T05:24:28.128Z,79.80
2017-03-28T05:25:27.684Z,80.60
2017-03-28T05:26:26.214Z,80.60
2017-03-28T05:27:25.518Z,80.70
2017-03-28T05:28:24.843Z,80.80
2017-03-28T05:29:23.413Z,80.70
2017-03-28T05:30:22.697Z,80.40
2017-03-28T05:31:21.690Z,80.40
2017-03-28T05:32:20.377Z,81.20
2017-03-28T05:33:19.859Z,81.60
2017-03-28T05:34:18.376Z,80.70
2017-03-28T05:35:16.945Z,79.80
2017-03-28T05:36:15.449Z,80.30
2017-03-28T05:37:15.043Z,79.80
2017-03-28T05:38:14.325Z,79.60
2017-03-28T05:39:12.841Z,79.60
2017-03-28T05:40:12.125Z,79.50
2017-03-28T05:41:11.381Z,79.40
2017-03-28T05:42:09.940Z,79.40
2017-03-28T05:43:08.900Z,80.20
2017-03-28T05:44:07.368Z,79.30
2017-03-28T05:45:05.870Z,78.60
2017-03-28T05:46:05.117Z,79.00
2017-03-28T05:47:03.713Z,79.00
2017-03-28T05:48:02.941Z,78.50
2017-03-28T05:49:01.789Z,78.50
2017-03-28T05:50:01.716Z,78.40
2017-03-28T05:51:00.961Z,77.80
2017-03-28T05:51:59.439Z,77.90
2017-03-28T05:52:57.929Z,77.10
2017-03-28T05:53:56.431Z,77.00
2017-03-28T05:54:55.191Z,76.60
2017-03-28T05:55:53.704Z,76.30
2017-03-28T05:56:52.944Z,76.20
2017-03-28T05:57:51.452Z,76.10
2017-03-28T05:58:50.668Z,76.30
2017-03-28T05:59:49.135Z,76.10
2017-03-28T06:00:47.899Z,75.70
2017-03-28T06:01:46.381Z,75.50
2017-03-28T06:02:45.633Z,75.60
2017-03-28T06:03:44.144Z,75.60
2017-03-28T06:04:42.622Z,75.20
2017-03-28T06:05:41.094Z,74.50
2017-03-28T06:06:40.638Z,72.60
2017-03-28T06:07:39.201Z,72.50
2017-03-28T06:08:37.664Z,71.90
2017-03-28T06:09:36.145Z,71.30
2017-03-28T06:10:35.429Z,71.20
2017-03-28T06:11:33.964Z,71.20
2017-03-28T06:12:33.484Z,70.20
2017-03-28T06:13:36.441Z,70.20
2017-03-28T06:14:35.016Z,70.30
2017-03-28T06:15:33.472Z,69.80
2017-03-28T06:16:32.764Z,68.40
2017-03-28T06:17:31.220Z,68.30
2017-03-28T06:18:30.831Z,67.10
2017-03-28T06:19:29.325Z,67.10
2017-03-28T06:20:27.801Z,67.00
2017-03-28T06:21:26.308Z,66.80
2017-03-28T06:22:24.820Z,67.60
2017-03-28T06:23:24.058Z,66.80
2017-03-28T06:24:22.936Z,66.70
2017-03-28T06:25:21.402Z,65.80
2017-03-28T06:26:19.968Z,66.20
2017-03-28T06:27:18.462Z,66.20
2017-03-28T06:28:18.314Z,64.40
2017-03-28T06:29:17.246Z,62.90
2017-03-28T06:30:16.907Z,61.20
2017-03-28T06:31:15.373Z,61.20
2017-03-28T06:32:13.878Z,59.70
2017-03-28T06:33:13.150Z,56.10
2017-03-28T06:34:11.632Z,55.90
2017-03-28T06:35:10.139Z,55.10
2017-03-28T06:36:09.751Z,51.30
2017-03-28T06:37:08.249Z,51.40
2017-03-28T06:38:07.492Z,47.90
2017-03-28T06:39:05.981Z,47.80
2017-03-28T06:40:05.362Z,44.10
2017-03-28T06:41:03.873Z,44.10
2017-03-28T06:42:02.681Z,42.30
2017-03-28T06:43:01.153Z,40.70
2017-03-28T06:44:01.133Z,39.70
2017-03-28T06:44:59.645Z,39.90
2017-03-28T06:45:58.890Z,38.60
2017-03-28T06:46:57.351Z,38.00
2017-03-28T06:47:56.245Z,36.70
2017-03-28T06:48:55.485Z,35.80
2017-03-28T06:49:53.957Z,35.80
2017-03-28T06:50:52.466Z,35.00
2017-03-28T06:51:50.955Z,34.00
2017-03-28T06:52:49.427Z,32.40
2017-03-28T06:53:49.017Z,32.20
2017-03-28T06:54:48.240Z,31.80
2017-03-28T06:55:46.724Z,31.70
2017-03-28T06:56:45.198Z,30.20
2017-03-28T06:57:44.435Z,30.30
2017-03-28T06:58:42.911Z,30.40
2017-03-28T06:59:41.685Z,29.40
2017-03-28T07:00:40.206Z,28.60
2017-03-28T07:01:39.460Z,28.90
2017-03-28T07:02:44.303Z,28.80
2017-03-28T07:03:43.541Z,27.60
2017-03-28T07:04:43.256Z,27.10
2017-03-28T07:05:41.840Z,27.10
2017-03-28T07:06:40.376Z,27.50
2017-03-28T07:07:38.875Z,27.20
2017-03-28T07:08:37.333Z,27.20
2017-03-28T07:09:36.566Z,26.40
2017-03-28T07:10:35.442Z,26.40
2017-03-28T07:11:33.912Z,26.80
2017-03-28T07:12:32.385Z,26.70
2017-03-28T07:13:30.892Z,27.10
2017-03-28T07:14:29.390Z,26.10
2017-03-28T07:15:28.022Z,24.30
2017-03-28T07:16:26.867Z,23.70
2017-03-28T07:17:25.406Z,23.90
2017-03-28T07:18:23.961Z,23.90
2017-03-28T07:19:22.705Z,24.00
2017-03-28T07:20:21.182Z,24.30
2017-03-28T07:21:19.721Z,23.90
2017-03-28T07:22:18.573Z,23.30
2017-03-28T07:23:17.927Z,23.20
2017-03-28T07:24:16.442Z,23.20
2017-03-28T07:25:15.687Z,22.90
2017-03-28T07:26:14.951Z,23.20
2017-03-28T07:27:13.523Z,23.20
2017-03-28T07:28:12.336Z,23.10
2017-03-28T07:29:10.804Z,22.90
2017-03-28T07:30:09.339Z,23.10
2017-03-28T07:31:07.865Z,21.40
2017-03-28T07:32:06.381Z,20.40
2017-03-28T07:33:05.614Z,20.00
2017-03-28T07:34:04.370Z,20.00
2017-03-28T07:35:02.909Z,20.00
2017-03-28T07:36:01.437Z,19.40
2017-03-28T07:36:59.945Z,19.40
2017-03-28T07:37:58.452Z,18.80
2017-03-28T07:38:57.727Z,19.60
2017-03-28T07:39:57.386Z,19.90
2017-03-28T07:40:55.880Z,19.90
2017-03-28T07:41:54.353Z,20.10
2017-03-28T07:42:53.598Z,19.60
2017-03-28T07:43:52.069Z,19.60
2017-03-28T07:44:50.553Z,19.40
2017-03-28T07:45:49.420Z,19.10
2017-03-28T07:46:47.998Z,18.90
2017-03-28T07:47:46.471Z,18.50
2017-03-28T07:48:44.938Z,19.20
2017-03-28T07:49:44.206Z,19.70
2017-03-28T07:50:42.694Z,19.10
2017-03-28T07:51:42.348Z,19.40
2017-03-28T07:52:41.567Z,19.00
2017-03-28T07:53:40.038Z,19.00
2017-03-28T07:54:39.341Z,18.80
2017-03-28T07:55:37.817Z,18.80
2017-03-28T07:56:36.288Z,18.40
2017-03-28T07:57:35.900Z,17.70
2017-03-28T07:58:34.414Z,17.60
2017-03-28T07:59:33.653Z,17.10
2017-03-28T08:00:32.906Z,16.60
2017-03-28T08:01:32.146Z,16.80
2017-03-28T08:02:30.612Z,16.80
2017-03-28T08:03:30.168Z,15.60
2017-03-28T08:04:28.668Z,15.60
2017-03-28T08:05:27.136Z,16.00
2017-03-28T08:06:25.679Z,16.00
2017-03-28T08:07:24.156Z,16.00
2017-03-28T08:08:22.693Z,15.80
2017-03-28T08:09:21.492Z,15.10
2017-03-28T08:10:20.003Z,15.10
2017-03-28T08:11:19.252Z,15.30
2017-03-28T08:12:17.804Z,15.30
2017-03-28T08:13:16.298Z,16.20
2017-03-28T08:14:15.590Z,15.30
2017-03-28T08:15:15.171Z,15.20
2017-03-28T08:16:14.413Z,15.00
2017-03-28T08:17:12.881Z,15.00
2017-03-28T08:18:11.389Z,15.50
2017-03-28T08:19:10.646Z,15.90
2017-03-28T08:20:09.911Z,15.60
2017-03-28T08:21:08.717Z,15.20
2017-03-28T08:22:07.985Z,16.30
2017-03-28T08:23:06.468Z,16.30
2017-03-28T08:24:05.754Z,15.00
2017-03-28T08:25:05.020Z,15.80
2017-03-28T08:26:03.504Z,15.30
2017-03-28T08:27:03.043Z,15.10
2017-03-28T08:28:01.528Z,15.00
2017-03-28T08:29:00.020Z,15.50
2017-03-28T08:29:58.496Z,16.30
2017-03-28T08:30:57.749Z,16.10
2017-03-28T08:31:56.990Z,15.50
2017-03-28T08:32:55.782Z,15.40
2017-03-28T08:33:54.358Z,15.70
2017-03-28T08:34:53.574Z,14.70
2017-03-28T08:35:52.045Z,14.80
2017-03-28T08:36:51.341Z,15.30
2017-03-28T08:37:50.591Z,16.00
2017-03-28T08:38:49.389Z,16.00
2017-03-28T08:39:48.654Z,15.10
2017-03-28T08:40:47.120Z,15.00
2017-03-28T08:41:45.601Z,14.80
2017-03-28T08:42:44.866Z,14.10
2017-03-28T08:43:43.384Z,14.10
2017-03-28T08:44:42.169Z,15.00
2017-03-28T08:45:40.664Z,14.90
2017-03-28T08:46:39.139Z,14.50
2017-03-28T08:47:38.401Z,14.50
2017-03-28T08:48:36.888Z,14.30
2017-03-28T08:49:35.336Z,13.50
2017-03-28T08:50:34.133Z,14.10
2017-03-28T08:51:33.382Z,14.80
2017-03-28T08:52:31.887Z,14.80
2017-03-28T08:53:31.124Z,14.80
2017-03-28T08:54:29.613Z,14.70
2017-03-28T08:55:28.064Z,14.70
2017-03-28T08:56:26.919Z,13.20
2017-03-28T08:57:25.617Z,12.70
2017-03-28T08:58:24.103Z,13.80
2017-03-28T08:59:23.383Z,14.80
2017-03-28T09:00:22.021Z,14.70
2017-03-28T09:01:20.530Z,15.10
2017-03-28T09:02:20.284Z,15.30
2017-03-28T09:03:18.812Z,15.20
2017-03-28T09:04:17.319Z,15.20
2017-03-28T09:05:15.812Z,15.30
2017-03-28T09:06:15.072Z,15.50
2017-03-28T09:07:14.357Z,14.70
2017-03-28T09:08:13.129Z,14.70
2017-03-28T09:09:18.297Z,14.20
2017-03-28T09:10:16.770Z,14.20
2017-03-28T09:11:15.298Z,13.60
2017-03-28T09:12:14.551Z,12.80
2017-03-28T09:13:13.425Z,12.70
2017-03-28T09:14:11.897Z,12.90
2017-03-28T09:15:10.364Z,13.50
2017-03-28T09:16:08.825Z,14.30
2017-03-28T09:17:07.321Z,14.30
2017-03-28T09:18:06.581Z,12.80
2017-03-28T09:19:05.422Z,12.80
2017-03-28T09:20:03.912Z,13.10
2017-03-28T09:21:02.378Z,13.40
2017-03-28T09:22:00.870Z,13.30
2017-03-28T09:23:00.097Z,14.30
2017-03-28T09:23:58.602Z,14.30
2017-03-28T09:24:57.374Z,14.20
2017-03-28T09:25:56.655Z,13.50
2017-03-28T09:26:55.955Z,13.90
2017-03-28T09:27:54.453Z,14.00
2017-03-28T09:28:55.940Z,14.00
2017-03-28T09:29:54.478Z,14.90
2017-03-28T09:30:53.280Z,14.00
2017-03-28T09:31:52.528Z,12.70
2017-03-28T09:32:51.033Z,13.00
2017-03-28T09:33:49.512Z,13.00
2017-03-28T09:34:48.764Z,12.80
2017-03-28T09:35:47.912Z,12.80
2017-03-28T09:36:46.790Z,12.30
2017-03-28T09:37:45.347Z,12.40
2017-03-28T09:38:44.592Z,12.10
2017-03-28T09:39:43.077Z,12.10
2017-03-28T09:40:41.593Z,11.70
2017-03-28T09:41:40.110Z,11.90
2017-03-28T09:42:39.664Z,13.30
2017-03-28T09:43:38.150Z,13.30
2017-03-28T09:44:37.396Z,13.10
2017-03-28T09:45:36.000Z,13.00
2017-03-28T09:46:34.469Z,14.00
2017-03-28T09:47:33.731Z,13.80
2017-03-28T09:48:32.685Z,13.80
2017-03-28T09:49:31.166Z,14.80
2017-03-28T09:50:29.678Z,14.40
2017-03-28T09:51:28.899Z,14.40
2017-03-28T09:52:27.382Z,14.40
2017-03-28T09:53:25.861Z,13.90
2017-03-28T09:54:24.712Z,14.10
2017-03-28T09:55:23.972Z,14.00
2017-03-28T09:56:22.475Z,14.00
2017-03-28T09:57:21.756Z,12.40
2017-03-28T09:58:20.280Z,12.40
2017-03-28T09:59:18.801Z,12.70
2017-03-28T10:00:17.746Z,13.10
2017-03-28T10:01:16.210Z,13.90
2017-03-28T10:02:14.714Z,13.40
2017-03-28T10:03:13.209Z,13.30
2017-03-28T10:04:11.704Z,12.70
2017-03-28T10:05:10.235Z,12.70
2017-03-28T10:06:09.039Z,11.80
2017-03-28T10:08:07.829Z,11.70
2017-03-28T10:09:06.306Z,11.70
2017-03-28T10:10:04.782Z,11.60
2017-03-28T10:11:03.238Z,12.70
2017-03-28T10:12:01.993Z,12.30
2017-03-28T10:13:00.508Z,12.90
2017-03-28T10:13:59.740Z,13.00
2017-03-28T10:14:58.429Z,13.00
2017-03-28T10:15:56.915Z,12.20
2017-03-28T10:16:56.153Z,11.40
2017-03-28T10:17:54.888Z,11.40
2017-03-28T10:18:53.371Z,12.00
2017-03-28T10:19:51.853Z,12.00
2017-03-28T10:20:50.345Z,13.00
2017-03-28T10:21:48.840Z,12.70
2017-03-28T10:22:48.177Z,12.30
2017-03-28T10:23:47.048Z,12.20
2017-03-28T10:24:45.541Z,12.60
2017-03-28T10:25:44.011Z,10.70
2017-03-28T10:26:42.484Z,10.70
2017-03-28T10:27:41.733Z,12.90
2017-03-28T10:28:40.217Z,12.90
2017-03-28T10:29:38.997Z,13.00
2017-03-28T10:30:37.490Z,12.20
2017-03-28T10:31:35.962Z,11.30
2017-03-28T10:32:34.437Z,11.70
2017-03-28T10:33:33.668Z,12.20
2017-03-28T10:34:32.149Z,12.20
2017-03-28T10:35:31.997Z,11.90
2017-03-28T10:36:30.469Z,11.90
2017-03-28T10:37:29.693Z,12.50
2017-03-28T10:38:29.009Z,13.40
2017-03-28T10:39:27.469Z,13.40
2017-03-28T10:40:25.968Z,12.10
2017-03-28T10:41:24.828Z,12.00
2017-03-28T10:42:23.326Z,12.20
2017-03-28T10:43:21.813Z,13.40
2017-03-28T10:44:21.078Z,12.30
2017-03-28T10:45:19.532Z,12.50
2017-03-28T10:46:18.007Z,11.40
2017-03-28T10:47:16.961Z,12.30
2017-03-28T10:48:15.443Z,12.40
2017-03-28T10:49:13.945Z,11.90
2017-03-28T10:50:13.236Z,10.60
2017-03-28T10:51:12.450Z,12.60
2017-03-28T10:52:10.925Z,12.40
2017-03-28T10:53:09.684Z,10.90
2017-03-28T10:54:08.924Z,12.40
2017-03-28T10:55:08.182Z,12.60
2017-03-28T10:56:07.412Z,12.30
2017-03-28T10:57:05.868Z,12.30
2017-03-28T10:58:04.355Z,12.40
2017-03-28T10:59:03.257Z,12.80
2017-03-28T11:00:01.732Z,11.90
2017-03-28T11:01:00.221Z,12.10
2017-03-28T11:01:59.489Z,11.60
2017-03-28T11:02:58.010Z,11.60
2017-03-28T11:03:57.273Z,11.20
2017-03-28T11:04:56.070Z,11.20
2017-03-28T11:05:54.525Z,11.70
2017-03-28T11:06:53.775Z,12.10
2017-03-28T11:07:53.001Z,11.20
2017-03-28T11:08:51.472Z,11.20
2017-03-28T11:09:49.953Z,11.90
2017-03-28T11:10:48.809Z,11.20
2017-03-28T11:11:47.283Z,11.50
2017-03-28T11:12:45.736Z,9.80
2017-03-28T11:13:44.250Z,12.40
2017-03-28T11:14:43.501Z,11.00
2017-03-28T11:15:41.985Z,11.10
2017-03-28T11:16:40.768Z,10.70
2017-03-28T11:17:40.032Z,12.30
2017-03-28T11:18:39.300Z,12.50
2017-03-28T11:19:37.766Z,12.50
2017-03-28T11:20:36.232Z,10.90
2017-03-28T11:21:34.705Z,12.70
2017-03-28T11:22:33.460Z,12.80
2017-03-28T11:23:31.992Z,12.30
2017-03-28T11:24:30.478Z,11.60
2017-03-28T11:25:28.939Z,11.80
2017-03-28T11:26:27.421Z,12.00
2017-03-28T11:27:25.911Z,12.70
2017-03-28T11:28:25.130Z,11.60
2017-03-28T11:29:24.352Z,11.80
2017-03-28T11:30:23.117Z,11.80
2017-03-28T11:31:21.628Z,12.30
2017-03-28T11:32:20.096Z,13.30
2017-03-28T11:33:19.344Z,12.10
2017-03-28T11:34:18.936Z,11.70
2017-03-28T11:35:17.449Z,11.70
2017-03-28T11:36:16.660Z,11.40
2017-03-28T11:37:15.142Z,11.40
2017-03-28T11:38:13.643Z,11.30
2017-03-28T11:39:12.901Z,10.50
2017-03-28T11:40:12.466Z,11.50
2017-03-28T11:41:10.969Z,11.50
2017-03-28T11:42:09.468Z,11.30
2017-03-28T11:43:08.852Z,11.30
2017-03-28T11:44:08.093Z,11.00
2017-03-28T11:45:06.574Z,11.10
2017-03-28T11:46:05.400Z,10.00
2017-03-28T11:47:03.888Z,11.00
2017-03-28T11:48:02.389Z,12.60
2017-03-28T11:49:01.639Z,12.70
2017-03-28T11:50:00.124Z,12.70
2017-03-28T11:50:58.585Z,10.80
2017-03-28T11:51:57.429Z,12.60
2017-03-28T11:52:56.672Z,11.90
2017-03-28T11:53:55.949Z,11.90
2017-03-28T11:54:55.192Z,12.90
2017-03-28T11:55:53.681Z,12.80
2017-03-28T11:56:52.164Z,13.90
2017-03-28T11:57:51.707Z,13.10
2017-03-28T11:58:50.213Z,13.10
2017-03-28T11:59:49.448Z,12.50
2017-03-28T12:00:48.680Z,12.80
2017-03-28T12:01:47.923Z,13.00
2017-03-28T12:02:46.385Z,12.90
2017-03-28T12:03:45.277Z,13.20
2017-03-28T12:04:43.773Z,13.30
2017-03-28T12:05:43.009Z,12.60
2017-03-28T12:06:41.496Z,12.60
2017-03-28T12:07:39.988Z,13.90
2017-03-28T12:08:39.240Z,12.70
2017-03-28T12:09:38.100Z,13.20
2017-03-28T12:10:36.572Z,14.60
2017-03-28T12:11:41.600Z,14.00
2017-03-28T12:12:40.067Z,13.80
2017-03-28T12:13:38.535Z,13.40
2017-03-28T12:14:37.056Z,13.20
2017-03-28T12:15:35.952Z,12.40
2017-03-28T12:16:34.443Z,12.50
2017-03-28T12:17:32.940Z,12.20
2017-03-28T12:18:32.199Z,15.20
2017-03-28T12:19:31.461Z,14.00
2017-03-28T12:20:29.944Z,14.00
2017-03-28T12:21:28.776Z,13.80
2017-03-28T12:22:27.235Z,12.30
2017-03-28T12:23:25.724Z,12.60
2017-03-28T12:24:24.218Z,12.20
2017-03-28T12:25:23.494Z,13.70
2017-03-28T12:26:21.994Z,13.20
2017-03-28T12:27:20.770Z,14.00
2017-03-28T12:28:19.221Z,13.20
2017-03-28T12:29:17.709Z,12.50
2017-03-28T12:30:16.212Z,12.60
2017-03-28T12:31:14.674Z,12.80
2017-03-28T12:32:13.175Z,14.40
2017-03-28T12:33:12.945Z,13.90
2017-03-28T12:34:11.420Z,13.40
2017-03-28T12:35:09.876Z,11.90
2017-03-28T12:36:08.335Z,11.80
2017-03-28T12:37:07.581Z,13.10
2017-03-28T12:38:06.066Z,12.60
2017-03-28T12:39:05.037Z,11.70